sensor_id;sensor_type;location;lat;lon;timestamp;pressure;altitude;pressure_sealevel;temperature;humidity
67840;BME280;54636;51.684;5.142;2023-07-28T00:01:28;100517.38;;;17.31;100.00
67840;BME280;54636;51.684;5.142;2023-07-28T00:03:54;100513.69;;;17.29;100.00
67840;BME280;54636;51.684;5.142;2023-07-28T00:06:19;100520.31;;;17.33;100.00
67840;BME280;54636;51.684;5.142;2023-07-28T00:08:44;100512.94;;;17.28;100.00
67840;BME280;54636;51.684;5.142;2023-07-28T00:11:11;100521.06;;;17.34;100.00
67840;BME280;54636;51.684;5.142;2023-07-28T00:13:40;100511.03;;;17.36;100.00
67840;BME280;54636;51.684;5.142;2023-07-28T00:16:09;100517.03;;;17.35;100.00
67840;BME280;54636;51.684;5.142;2023-07-28T00:18:35;100516.50;;;17.36;100.00
67840;BME280;54636;51.684;5.142;2023-07-28T00:21:01;100497.00;;;17.27;100.00
67840;BME280;54636;51.684;5.142;2023-07-28T00:23:27;100516.31;;;17.34;100.00
67840;BME280;54636;51.684;5.142;2023-07-28T00:25:52;100506.41;;;17.31;100.00
67840;BME280;54636;51.684;5.142;2023-07-28T00:28:18;100518.72;;;17.38;100.00
67840;BME280;54636;51.684;5.142;2023-07-28T00:30:43;100519.47;;;17.38;100.00
67840;BME280;54636;51.684;5.142;2023-07-28T00:33:09;100517.97;;;17.37;100.00
67840;BME280;54636;51.684;5.142;2023-07-28T00:35:34;100507.34;;;17.34;100.00
67840;BME280;54636;51.684;5.142;2023-07-28T00:38:00;100513.75;;;17.36;100.00
67840;BME280;54636;51.684;5.142;2023-07-28T00:40:25;100488.56;;;17.25;100.00
67840;BME280;54636;51.684;5.142;2023-07-28T00:42:50;100514.16;;;17.40;100.00
67840;BME280;54636;51.684;5.142;2023-07-28T00:45:16;100511.22;;;17.38;100.00
67840;BME280;54636;51.684;5.142;2023-07-28T00:47:42;100507.94;;;17.40;100.00
67840;BME280;54636;51.684;5.142;2023-07-28T00:50:08;100508.88;;;17.42;100.00
67840;BME280;54636;51.684;5.142;2023-07-28T00:52:35;100517.31;;;17.44;100.00
67840;BME280;54636;51.684;5.142;2023-07-28T00:55:01;100514.38;;;17.42;100.00
67840;BME280;54636;51.684;5.142;2023-07-28T00:57:27;100511.44;;;17.40;100.00
67840;BME280;54636;51.684;5.142;2023-07-28T00:59:52;100514.03;;;17.46;100.00
67840;BME280;54636;51.684;5.142;2023-07-28T01:02:19;100515.31;;;17.45;100.00
67840;BME280;54636;51.684;5.142;2023-07-28T01:04:44;100517.13;;;17.42;100.00
67840;BME280;54636;51.684;5.142;2023-07-28T01:07:15;100523.88;;;17.41;100.00
67840;BME280;54636;51.684;5.142;2023-07-28T01:12:29;100525.75;;;17.47;100.00
67840;BME280;54636;51.684;5.142;2023-07-28T01:14:55;100536.00;;;17.46;100.00
67840;BME280;54636;51.684;5.142;2023-07-28T01:17:20;100534.53;;;17.45;100.00
67840;BME280;54636;51.684;5.142;2023-07-28T01:19:49;100540.22;;;17.47;100.00
67840;BME280;54636;51.684;5.142;2023-07-28T01:24:51;100529.25;;;17.47;100.00
67840;BME280;54636;51.684;5.142;2023-07-28T01:27:17;100534.53;;;17.45;100.00
67840;BME280;54636;51.684;5.142;2023-07-28T01:29:43;100537.47;;;17.47;100.00
67840;BME280;54636;51.684;5.142;2023-07-28T01:32:11;100537.47;;;17.47;100.00
67840;BME280;54636;51.684;5.142;2023-07-28T01:34:38;100536.34;;;17.42;100.00
67840;BME280;54636;51.684;5.142;2023-07-28T01:37:03;100536.75;;;17.47;100.00
67840;BME280;54636;51.684;5.142;2023-07-28T01:39:28;100533.25;;;17.46;100.00
67840;BME280;54636;51.684;5.142;2023-07-28T01:41:54;100526.63;;;17.41;100.00
67840;BME280;54636;51.684;5.142;2023-07-28T01:44:19;100529.03;;;17.45;100.00
67840;BME280;54636;51.684;5.142;2023-07-28T01:46:45;100530.31;;;17.44;100.00
67840;BME280;54636;51.684;5.142;2023-07-28T01:49:10;100537.28;;;17.45;100.00
67840;BME280;54636;51.684;5.142;2023-07-28T01:51:35;100536.53;;;17.44;100.00
67840;BME280;54636;51.684;5.142;2023-07-28T01:54:01;100532.44;;;17.38;100.00
67840;BME280;54636;51.684;5.142;2023-07-28T01:56:26;100528.22;;;17.37;100.00
67840;BME280;54636;51.684;5.142;2023-07-28T01:58:51;100524.53;;;17.34;100.00
67840;BME280;54636;51.684;5.142;2023-07-28T02:01:17;100530.84;;;17.42;100.00
67840;BME280;54636;51.684;5.142;2023-07-28T02:03:42;100535.59;;;17.42;100.00
67840;BME280;54636;51.684;5.142;2023-07-28T02:06:07;100530.09;;;17.42;100.00
67840;BME280;54636;51.684;5.142;2023-07-28T02:08:33;100533.38;;;17.40;100.00
67840;BME280;54636;51.684;5.142;2023-07-28T02:10:58;100539.09;;;17.42;100.00
67840;BME280;54636;51.684;5.142;2023-07-28T02:13:23;100519.78;;;17.35;100.00
67840;BME280;54636;51.684;5.142;2023-07-28T02:15:49;100524.75;;;17.36;100.00
67840;BME280;54636;51.684;5.142;2023-07-28T02:18:14;100526.41;;;17.39;100.00
67840;BME280;54636;51.684;5.142;2023-07-28T02:20:42;100523.47;;;17.37;100.00
67840;BME280;54636;51.684;5.142;2023-07-28T02:23:08;100521.88;;;17.42;100.00
67840;BME280;54636;51.684;5.142;2023-07-28T02:25:33;100512.28;;;17.35;100.00
67840;BME280;54636;51.684;5.142;2023-07-28T02:27:59;100520.41;;;17.41;100.00
67840;BME280;54636;51.684;5.142;2023-07-28T02:30:24;100530.66;;;17.40;100.00
67840;BME280;54636;51.684;5.142;2023-07-28T02:32:50;100536.13;;;17.40;100.00
67840;BME280;54636;51.684;5.142;2023-07-28T02:35:15;100519.59;;;17.33;100.00
67840;BME280;54636;51.684;5.142;2023-07-28T02:37:41;100535.81;;;17.44;100.00
67840;BME280;54636;51.684;5.142;2023-07-28T02:40:07;100532.31;;;17.43;100.00
67840;BME280;54636;51.684;5.142;2023-07-28T02:42:36;100534.88;;;17.41;100.00
67840;BME280;54636;51.684;5.142;2023-07-28T02:45:02;100525.16;;;17.40;100.00
67840;BME280;54636;51.684;5.142;2023-07-28T02:47:27;100531.38;;;17.41;100.00
67840;BME280;54636;51.684;5.142;2023-07-28T02:49:53;100536.34;;;17.42;100.00
67840;BME280;54636;51.684;5.142;2023-07-28T02:52:20;100537.59;;;17.41;100.00
67840;BME280;54636;51.684;5.142;2023-07-28T02:54:45;100541.63;;;17.40;100.00
67840;BME280;54636;51.684;5.142;2023-07-28T02:57:10;100540.16;;;17.39;100.00
67840;BME280;54636;51.684;5.142;2023-07-28T02:59:36;100546.03;;;17.43;100.00
67840;BME280;54636;51.684;5.142;2023-07-28T03:02:01;100548.25;;;17.45;100.00
67840;BME280;54636;51.684;5.142;2023-07-28T03:04:27;100526.69;;;17.28;100.00
67840;BME280;54636;51.684;5.142;2023-07-28T03:06:52;100550.06;;;17.42;100.00
67840;BME280;54636;51.684;5.142;2023-07-28T03:09:18;100533.19;;;17.38;100.00
67840;BME280;54636;51.684;5.142;2023-07-28T03:11:43;100550.06;;;17.42;100.00
67840;BME280;54636;51.684;5.142;2023-07-28T03:14:09;100554.09;;;17.41;100.00
67840;BME280;54636;51.684;5.142;2023-07-28T03:16:35;100544.69;;;17.37;100.00
67840;BME280;54636;51.684;5.142;2023-07-28T03:19:00;100552.59;;;17.40;100.00
67840;BME280;54636;51.684;5.142;2023-07-28T03:21:26;100556.81;;;17.41;100.00
67840;BME280;54636;51.684;5.142;2023-07-28T03:23:51;100545.22;;;17.35;100.00
67840;BME280;54636;51.684;5.142;2023-07-28T03:26:17;100558.09;;;17.40;100.00
67840;BME280;54636;51.684;5.142;2023-07-28T03:28:43;100561.78;;;17.43;100.00
67840;BME280;54636;51.684;5.142;2023-07-28T03:31:08;100562.31;;;17.41;100.00
67840;BME280;54636;51.684;5.142;2023-07-28T03:33:33;100552.00;;;17.34;100.00
67840;BME280;54636;51.684;5.142;2023-07-28T03:35:59;100556.81;;;17.41;100.00
67840;BME280;54636;51.684;5.142;2023-07-28T03:38:24;100555.16;;;17.38;100.00
67840;BME280;54636;51.684;5.142;2023-07-28T03:40:50;100555.34;;;17.40;100.00
67840;BME280;54636;51.684;5.142;2023-07-28T03:43:15;100555.56;;;17.42;100.00
67840;BME280;54636;51.684;5.142;2023-07-28T03:45:41;100562.53;;;17.43;100.00
67840;BME280;54636;51.684;5.142;2023-07-28T03:48:07;100568.88;;;17.38;100.00
67840;BME280;54636;51.684;5.142;2023-07-28T03:50:32;100569.09;;;17.40;100.00
67840;BME280;54636;51.684;5.142;2023-07-28T03:52:58;100571.28;;;17.42;100.00
67840;BME280;54636;51.684;5.142;2023-07-28T03:55:23;100576.56;;;17.40;100.00
67840;BME280;54636;51.684;5.142;2023-07-28T03:57:48;100571.81;;;17.40;100.00
67840;BME280;54636;51.684;5.142;2023-07-28T04:00:14;100580.81;;;17.41;100.00
67840;BME280;54636;51.684;5.142;2023-07-28T04:02:39;100586.28;;;17.41;100.00
67840;BME280;54636;51.684;5.142;2023-07-28T04:05:05;100586.81;;;17.39;100.00
67840;BME280;54636;51.684;5.142;2023-07-28T04:07:30;100575.63;;;17.37;100.00
67840;BME280;54636;51.684;5.142;2023-07-28T04:09:56;100588.50;;;17.42;100.00
67840;BME280;54636;51.684;5.142;2023-07-28T04:12:21;100580.06;;;17.40;100.00
67840;BME280;54636;51.684;5.142;2023-07-28T04:14:46;100575.44;;;17.35;100.00
67840;BME280;54636;51.684;5.142;2023-07-28T04:17:12;100564.56;;;17.30;100.00
67840;BME280;54636;51.684;5.142;2023-07-28T04:19:37;100579.31;;;17.40;100.00
67840;BME280;54636;51.684;5.142;2023-07-28T04:22:03;100578.06;;;17.41;100.00
67840;BME280;54636;51.684;5.142;2023-07-28T04:24:28;100569.22;;;17.35;100.00
67840;BME280;54636;51.684;5.142;2023-07-28T04:26:54;100567.06;;;17.41;100.00
67840;BME280;54636;51.684;5.142;2023-07-28T04:29:19;100571.22;;;17.34;100.00
67840;BME280;54636;51.684;5.142;2023-07-28T04:31:44;100584.59;;;17.38;100.00
67840;BME280;54636;51.684;5.142;2023-07-28T04:34:10;100576.03;;;17.41;100.00
67840;BME280;54636;51.684;5.142;2023-07-28T04:36:35;100590.50;;;17.42;100.00
67840;BME280;54636;51.684;5.142;2023-07-28T04:39:01;100591.25;;;17.42;100.00
67840;BME280;54636;51.684;5.142;2023-07-28T04:41:26;100582.28;;;17.42;100.00
67840;BME280;54636;51.684;5.142;2023-07-28T04:43:52;100589.97;;;17.43;100.00
67840;BME280;54636;51.684;5.142;2023-07-28T04:46:17;100600.63;;;17.47;100.00
67840;BME280;54636;51.684;5.142;2023-07-28T04:48:42;100592.72;;;17.43;100.00
67840;BME280;54636;51.684;5.142;2023-07-28T04:51:08;100594.06;;;17.50;100.00
67840;BME280;54636;51.684;5.142;2023-07-28T04:53:33;100592.28;;;17.53;100.00
67840;BME280;54636;51.684;5.142;2023-07-28T04:55:59;100582.16;;;17.48;100.00
67840;BME280;54636;51.684;5.142;2023-07-28T04:58:24;100599.78;;;17.52;100.00
67840;BME280;54636;51.684;5.142;2023-07-28T05:00:50;100601.97;;;17.54;100.00
67840;BME280;54636;51.684;5.142;2023-07-28T05:03:15;100597.22;;;17.54;100.00
67840;BME280;54636;51.684;5.142;2023-07-28T05:05:44;100597.03;;;17.52;100.00
67840;BME280;54636;51.684;5.142;2023-07-28T05:08:09;100600.72;;;17.55;100.00
67840;BME280;54636;51.684;5.142;2023-07-28T05:10:35;100600.88;;;17.57;100.00
67840;BME280;54636;51.684;5.142;2023-07-28T05:13:00;100601.09;;;17.59;100.00
67840;BME280;54636;51.684;5.142;2023-07-28T05:15:26;100585.50;;;17.54;100.00
67840;BME280;54636;51.684;5.142;2023-07-28T05:17:51;100603.22;;;17.66;100.00
67840;BME280;54636;51.684;5.142;2023-07-28T05:20:16;100605.63;;;17.69;100.00
67840;BME280;54636;51.684;5.142;2023-07-28T05:22:42;100609.31;;;17.72;100.00
67840;BME280;54636;51.684;5.142;2023-07-28T05:25:07;100607.31;;;17.72;100.00
67840;BME280;54636;51.684;5.142;2023-07-28T05:27:33;100585.50;;;17.54;100.00
67840;BME280;54636;51.684;5.142;2023-07-28T05:29:59;100621.44;;;17.76;100.00
67840;BME280;54636;51.684;5.142;2023-07-28T05:32:24;100606.97;;;17.76;100.00
67840;BME280;54636;51.684;5.142;2023-07-28T05:34:49;100592.41;;;17.68;100.00
67840;BME280;54636;51.684;5.142;2023-07-28T05:37:15;100614.75;;;17.85;100.00
67840;BME280;54636;51.684;5.142;2023-07-28T05:39:43;100615.22;;;17.76;100.00
67840;BME280;54636;51.684;5.142;2023-07-28T05:42:09;100611.38;;;17.79;100.00
67840;BME280;54636;51.684;5.142;2023-07-28T05:44:34;100622.25;;;17.85;100.00
67840;BME280;54636;51.684;5.142;2023-07-28T05:47:00;100624.47;;;17.86;100.00
67840;BME280;54636;51.684;5.142;2023-07-28T05:49:25;100621.72;;;17.86;100.00
67840;BME280;54636;51.684;5.142;2023-07-28T05:51:51;100625.94;;;17.87;100.00
67840;BME280;54636;51.684;5.142;2023-07-28T05:54:16;100631.09;;;17.91;100.00
67840;BME280;54636;51.684;5.142;2023-07-28T05:56:42;100636.06;;;17.92;100.00
67840;BME280;54636;51.684;5.142;2023-07-28T05:59:08;100643.78;;;17.94;100.00
67840;BME280;54636;51.684;5.142;2023-07-28T06:01:33;100637.13;;;17.89;100.00
67840;BME280;54636;51.684;5.142;2023-07-28T06:03:59;100642.50;;;17.95;100.00
67840;BME280;54636;51.684;5.142;2023-07-28T06:06:27;100646.38;;;17.99;100.00
67840;BME280;54636;51.684;5.142;2023-07-28T06:08:53;100647.66;;;17.98;100.00
67840;BME280;54636;51.684;5.142;2023-07-28T06:11:19;100647.84;;;18.00;100.00
67840;BME280;54636;51.684;5.142;2023-07-28T06:13:45;100642.22;;;18.06;100.00
67840;BME280;54636;51.684;5.142;2023-07-28T06:16:11;100652.69;;;18.07;100.00
67840;BME280;54636;51.684;5.142;2023-07-28T06:18:37;100638.75;;;18.05;100.00
67840;BME280;54636;51.684;5.142;2023-07-28T06:21:03;100659.00;;;18.16;100.00
67840;BME280;54636;51.684;5.142;2023-07-28T06:23:28;100655.34;;;18.21;100.00
67840;BME280;54636;51.684;5.142;2023-07-28T06:25:54;100659.97;;;18.26;100.00
67840;BME280;54636;51.684;5.142;2023-07-28T06:28:20;100657.22;;;18.26;100.00
67840;BME280;54636;51.684;5.142;2023-07-28T06:30:46;100653.19;;;18.27;100.00
67840;BME280;54636;51.684;5.142;2023-07-28T06:33:11;100660.63;;;18.39;100.00
67840;BME280;54636;51.684;5.142;2023-07-28T06:35:37;100668.41;;;18.49;100.00
67840;BME280;54636;51.684;5.142;2023-07-28T06:38:02;100666.59;;;18.51;100.00
67840;BME280;54636;51.684;5.142;2023-07-28T06:40:28;100666.25;;;18.55;100.00
67840;BME280;54636;51.684;5.142;2023-07-28T06:42:53;100661.28;;;18.53;100.00
67840;BME280;54636;51.684;5.142;2023-07-28T06:45:20;100656.91;;;18.58;100.00
67840;BME280;54636;51.684;5.142;2023-07-28T06:47:45;100676.31;;;18.73;100.00
67840;BME280;54636;51.684;5.142;2023-07-28T06:50:11;100668.59;;;18.71;100.00
67840;BME280;54636;51.684;5.142;2023-07-28T06:52:37;100678.16;;;18.78;100.00
67840;BME280;54636;51.684;5.142;2023-07-28T06:55:02;100675.16;;;18.68;100.00
67840;BME280;54636;51.684;5.142;2023-07-28T06:57:29;100695.97;;;18.77;100.00
67840;BME280;54636;51.684;5.142;2023-07-28T06:59:54;100689.19;;;18.78;100.00
67840;BME280;54636;51.684;5.142;2023-07-28T07:02:20;100664.50;;;18.65;100.00
67840;BME280;54636;51.684;5.142;2023-07-28T07:04:45;100693.41;;;18.79;100.00
67840;BME280;54636;51.684;5.142;2023-07-28T07:07:11;100693.75;;;18.75;100.00
67840;BME280;54636;51.684;5.142;2023-07-28T07:09:36;100702.00;;;18.75;100.00
67840;BME280;54636;51.684;5.142;2023-07-28T07:12:02;100703.09;;;18.72;100.00
67840;BME280;54636;51.684;5.142;2023-07-28T07:14:28;100704.34;;;18.71;100.00
67840;BME280;54636;51.684;5.142;2023-07-28T07:16:54;100699.38;;;18.70;100.00
67840;BME280;54636;51.684;5.142;2023-07-28T07:19:19;100703.28;;;18.74;100.00
67840;BME280;54636;51.684;5.142;2023-07-28T07:21:44;100698.50;;;18.75;100.00
67840;BME280;54636;51.684;5.142;2023-07-28T07:24:10;100707.69;;;18.78;100.00
67840;BME280;54636;51.684;5.142;2023-07-28T07:26:41;100697.72;;;18.67;100.00
67840;BME280;54636;51.684;5.142;2023-07-28T07:29:08;100711.78;;;18.84;100.00
67840;BME280;54636;51.684;5.142;2023-07-28T07:31:34;100713.78;;;18.84;100.00
67840;BME280;54636;51.684;5.142;2023-07-28T07:33:59;100718.03;;;18.85;100.00
67840;BME280;54636;51.684;5.142;2023-07-28T07:36:25;100716.91;;;18.88;100.00
67840;BME280;54636;51.684;5.142;2023-07-28T07:38:51;100715.63;;;18.89;100.00
67840;BME280;54636;51.684;5.142;2023-07-28T07:41:16;100718.44;;;18.96;100.00
67840;BME280;54636;51.684;5.142;2023-07-28T07:43:48;100722.88;;;18.99;100.00
67840;BME280;54636;51.684;5.142;2023-07-28T07:46:14;100722.72;;;19.05;100.00
67840;BME280;54636;51.684;5.142;2023-07-28T07:48:39;100730.66;;;19.16;100.00
67840;BME280;54636;51.684;5.142;2023-07-28T07:51:05;100736.38;;;19.18;100.00
67840;BME280;54636;51.684;5.142;2023-07-28T07:53:30;100728.84;;;19.19;100.00
67840;BME280;54636;51.684;5.142;2023-07-28T07:55:55;100736.03;;;19.22;100.00
67840;BME280;54636;51.684;5.142;2023-07-28T07:58:21;100731.25;;;19.22;100.00
67840;BME280;54636;51.684;5.142;2023-07-28T08:00:46;100721.28;;;19.12;100.00
67840;BME280;54636;51.684;5.142;2023-07-28T08:03:12;100726.25;;;19.13;100.00
67840;BME280;54636;51.684;5.142;2023-07-28T08:05:37;100734.34;;;19.19;100.00
67840;BME280;54636;51.684;5.142;2023-07-28T08:08:05;100724.97;;;19.14;100.00
67840;BME280;54636;51.684;5.142;2023-07-28T08:10:33;100733.47;;;19.24;100.00
67840;BME280;54636;51.684;5.142;2023-07-28T08:12:58;100734.94;;;19.25;100.00
67840;BME280;54636;51.684;5.142;2023-07-28T08:15:25;100744.38;;;19.37;100.00
67840;BME280;54636;51.684;5.142;2023-07-28T08:17:50;100723.03;;;19.30;100.00
67840;BME280;54636;51.684;5.142;2023-07-28T08:20:16;100746.97;;;19.42;100.00
67840;BME280;54636;51.684;5.142;2023-07-28T08:22:41;100753.03;;;19.41;100.00
67840;BME280;54636;51.684;5.142;2023-07-28T08:25:07;100757.84;;;19.48;100.00
67840;BME280;54636;51.684;5.142;2023-07-28T08:27:33;100757.84;;;19.48;100.00
67840;BME280;54636;51.684;5.142;2023-07-28T08:29:59;100758.94;;;19.53;100.00
67840;BME280;54636;51.684;5.142;2023-07-28T08:32:24;100751.47;;;19.61;100.00
67840;BME280;54636;51.684;5.142;2023-07-28T08:34:49;100756.16;;;19.89;100.00
67840;BME280;54636;51.684;5.142;2023-07-28T08:37:15;100758.78;;;20.10;100.00
67840;BME280;54636;51.684;5.142;2023-07-28T08:39:43;100764.84;;;20.23;100.00
67840;BME280;54636;51.684;5.142;2023-07-28T08:42:08;100758.44;;;20.13;100.00
67840;BME280;54636;51.684;5.142;2023-07-28T08:44:35;100765.03;;;20.18;100.00
67840;BME280;54636;51.684;5.142;2023-07-28T08:47:04;100768.91;;;20.15;100.00
67840;BME280;54636;51.684;5.142;2023-07-28T08:49:33;100748.84;;;20.06;100.00
67840;BME280;54636;51.684;5.142;2023-07-28T08:52:02;100760.44;;;20.13;100.00
67840;BME280;54636;51.684;5.142;2023-07-28T08:54:29;100763.75;;;20.19;100.00
67840;BME280;54636;51.684;5.142;2023-07-28T08:56:54;100764.69;;;20.29;100.00
67840;BME280;54636;51.684;5.142;2023-07-28T08:59:23;100768.94;;;20.37;100.00
67840;BME280;54636;51.684;5.142;2023-07-28T09:01:51;100773.94;;;20.47;100.00
67840;BME280;54636;51.684;5.142;2023-07-28T09:04:17;100775.22;;;20.61;100.00
67840;BME280;54636;51.684;5.142;2023-07-28T09:06:46;100777.25;;;20.76;100.00
67840;BME280;54636;51.684;5.142;2023-07-28T09:09:13;100769.47;;;21.04;100.00
67840;BME280;54636;51.684;5.142;2023-07-28T09:11:52;100782.53;;;21.27;100.00
67840;BME280;54636;51.684;5.142;2023-07-28T09:14:20;100763.75;;;21.25;100.00
67840;BME280;54636;51.684;5.142;2023-07-28T09:16:47;100767.06;;;21.24;100.00
67840;BME280;54636;51.684;5.142;2023-07-28T09:19:13;100759.53;;;21.09;100.00
67840;BME280;54636;51.684;5.142;2023-07-28T09:21:39;100766.91;;;21.07;100.00
67840;BME280;54636;51.684;5.142;2023-07-28T09:24:12;100787.53;;;20.98;100.00
67840;BME280;54636;51.684;5.142;2023-07-28T09:26:46;100776.66;;;20.85;100.00
67840;BME280;54636;51.684;5.142;2023-07-28T09:29:19;100784.03;;;20.97;100.00
67840;BME280;54636;51.684;5.142;2023-07-28T09:31:46;100786.41;;;21.09;100.00
67840;BME280;54636;51.684;5.142;2023-07-28T09:34:12;100781.25;;;21.28;100.00
67840;BME280;54636;51.684;5.142;2023-07-28T09:36:39;100781.50;;;21.55;100.00
67840;BME280;54636;51.684;5.142;2023-07-28T09:39:06;100787.00;;;21.70;100.00
67840;BME280;54636;51.684;5.142;2023-07-28T09:41:35;100772.81;;;21.66;100.00
67840;BME280;54636;51.684;5.142;2023-07-28T09:44:02;100794.44;;;21.92;100.00
67840;BME280;54636;51.684;5.142;2023-07-28T09:46:28;100786.16;;;21.92;100.00
67840;BME280;54636;51.684;5.142;2023-07-28T09:48:57;100787.63;;;21.93;100.00
67840;BME280;54636;51.684;5.142;2023-07-28T09:51:29;100777.66;;;21.98;100.00
67840;BME280;54636;51.684;5.142;2023-07-28T09:54:39;100779.75;;;22.15;100.00
67840;BME280;54636;51.684;5.142;2023-07-28T09:56:50;100789.16;;;22.44;100.00
67840;BME280;54636;51.684;5.142;2023-07-28T09:59:17;100784.88;;;22.51;100.00
67840;BME280;54636;51.684;5.142;2023-07-28T10:01:44;100787.03;;;22.60;100.00
67840;BME280;54636;51.684;5.142;2023-07-28T10:04:10;100791.72;;;22.75;100.00
67840;BME280;54636;51.684;5.142;2023-07-28T10:06:36;100792.22;;;22.81;100.00
67840;BME280;54636;51.684;5.142;2023-07-28T10:09:04;100781.72;;;22.96;100.00
67840;BME280;54636;51.684;5.142;2023-07-28T10:11:31;100790.88;;;23.24;99.46
67840;BME280;54636;51.684;5.142;2023-07-28T10:13:56;100791.34;;;23.47;98.34
67840;BME280;54636;51.684;5.142;2023-07-28T10:16:39;100795.44;;;23.63;98.86
67840;BME280;54636;51.684;5.142;2023-07-28T10:19:04;100791.19;;;23.80;97.71
67840;BME280;54636;51.684;5.142;2023-07-28T10:21:31;100785.63;;;24.07;96.45
67840;BME280;54636;51.684;5.142;2023-07-28T10:23:58;100783.47;;;24.42;94.56
67840;BME280;54636;51.684;5.142;2023-07-28T10:26:31;100791.75;;;24.78;94.52
67840;BME280;54636;51.684;5.142;2023-07-28T10:29:10;100793.03;;;25.14;91.39
67840;BME280;54636;51.684;5.142;2023-07-28T10:31:36;100793.59;;;25.12;85.25
67840;BME280;54636;51.684;5.142;2023-07-28T10:34:01;100791.69;;;25.05;86.39
67840;BME280;54636;51.684;5.142;2023-07-28T10:41:30;100792.22;;;24.84;86.09
67840;BME280;54636;51.684;5.142;2023-07-28T10:43:58;100789.84;;;24.61;85.04
67840;BME280;54636;51.684;5.142;2023-07-28T10:46:26;100785.16;;;24.27;86.87
67840;BME280;54636;51.684;5.142;2023-07-28T10:48:52;100795.84;;;24.31;87.72
67840;BME280;54636;51.684;5.142;2023-07-28T10:51:25;100781.00;;;24.19;88.64
67840;BME280;54636;51.684;5.142;2023-07-28T10:53:57;100784.25;;;24.25;87.82
67840;BME280;54636;51.684;5.142;2023-07-28T10:56:22;100788.28;;;24.41;91.37
67840;BME280;54636;51.684;5.142;2023-07-28T10:59:00;100783.91;;;24.38;87.77
67840;BME280;54636;51.684;5.142;2023-07-28T11:01:39;100794.38;;;24.30;88.63
67840;BME280;54636;51.684;5.142;2023-07-28T11:04:19;100795.03;;;24.21;86.40
67840;BME280;54636;51.684;5.142;2023-07-28T11:06:49;100789.13;;;24.07;88.91
67840;BME280;54636;51.684;5.142;2023-07-28T11:09:19;100782.06;;;24.23;89.75
67840;BME280;54636;51.684;5.142;2023-07-28T11:11:47;100781.34;;;24.59;86.32
67840;BME280;54636;51.684;5.142;2023-07-28T11:14:14;100785.78;;;24.82;85.53
67840;BME280;54636;51.684;5.142;2023-07-28T11:16:43;100778.66;;;24.98;85.08
67840;BME280;54636;51.684;5.142;2023-07-28T11:19:15;100781.31;;;25.15;80.29
67840;BME280;54636;51.684;5.142;2023-07-28T11:21:42;100780.44;;;25.22;81.18
67840;BME280;54636;51.684;5.142;2023-07-28T11:24:09;100778.22;;;25.40;79.85
67840;BME280;54636;51.684;5.142;2023-07-28T11:26:35;100778.66;;;25.56;82.20
67840;BME280;54636;51.684;5.142;2023-07-28T11:29:00;100780.25;;;25.59;78.87
67840;BME280;54636;51.684;5.142;2023-07-28T11:31:26;100772.81;;;25.42;80.23
67840;BME280;54636;51.684;5.142;2023-07-28T11:33:52;100784.97;;;25.27;80.09
67840;BME280;54636;51.684;5.142;2023-07-28T11:36:25;100776.19;;;25.02;81.08
67840;BME280;54636;51.684;5.142;2023-07-28T11:38:52;100783.88;;;24.94;82.86
67840;BME280;54636;51.684;5.142;2023-07-28T11:41:19;100773.50;;;24.85;81.03
67840;BME280;54636;51.684;5.142;2023-07-28T11:43:45;100779.19;;;24.87;82.62
67840;BME280;54636;51.684;5.142;2023-07-28T11:51:45;100772.31;;;24.69;83.72
67840;BME280;54636;51.684;5.142;2023-07-28T11:54:13;100779.00;;;24.56;83.30
67840;BME280;54636;51.684;5.142;2023-07-28T11:56:46;100779.00;;;24.56;84.27
67840;BME280;54636;51.684;5.142;2023-07-28T11:59:14;100787.09;;;24.81;83.87
67840;BME280;54636;51.684;5.142;2023-07-28T12:01:56;100786.16;;;25.24;82.17
67840;BME280;54636;51.684;5.142;2023-07-28T12:04:24;100786.56;;;25.69;80.47
67840;BME280;54636;51.684;5.142;2023-07-28T12:12:15;100782.69;;;26.44;73.43
67840;BME280;54636;51.684;5.142;2023-07-28T12:14:42;100778.03;;;26.37;72.14
67840;BME280;54636;51.684;5.142;2023-07-28T12:17:14;100784.94;;;26.36;72.89
67840;BME280;54636;51.684;5.142;2023-07-28T12:20:07;100775.03;;;26.13;73.13
67840;BME280;54636;51.684;5.142;2023-07-28T12:22:36;100783.72;;;25.98;71.51
67840;BME280;54636;51.684;5.142;2023-07-28T12:25:02;100780.13;;;25.76;71.65
67840;BME280;54636;51.684;5.142;2023-07-28T12:27:27;100790.09;;;25.70;74.29
67840;BME280;54636;51.684;5.142;2023-07-28T12:29:53;100777.94;;;25.65;75.30
67840;BME280;54636;51.684;5.142;2023-07-28T12:32:19;100785.84;;;25.69;74.48
67840;BME280;54636;51.684;5.142;2023-07-28T12:34:44;100780.69;;;25.55;75.36
67840;BME280;54636;51.684;5.142;2023-07-28T12:37:10;100775.59;;;25.52;73.78
67840;BME280;54636;51.684;5.142;2023-07-28T12:39:37;100786.44;;;25.67;74.51
67840;BME280;54636;51.684;5.142;2023-07-28T12:42:06;100777.47;;;25.88;71.37
67840;BME280;54636;51.684;5.142;2023-07-28T12:44:32;100787.47;;;26.12;71.04
67840;BME280;54636;51.684;5.142;2023-07-28T12:46:57;100780.41;;;26.21;68.79
67840;BME280;54636;51.684;5.142;2023-07-28T12:49:23;100786.72;;;26.21;69.07
67840;BME280;54636;51.684;5.142;2023-07-28T12:51:49;100794.06;;;26.17;71.87
67840;BME280;54636;51.684;5.142;2023-07-28T12:54:14;100788.97;;;26.04;72.07
67840;BME280;54636;51.684;5.142;2023-07-28T12:56:43;100791.75;;;26.04;72.25
67840;BME280;54636;51.684;5.142;2023-07-28T12:59:08;100790.69;;;26.18;72.76
67840;BME280;54636;51.684;5.142;2023-07-28T13:01:37;100800.63;;;26.21;69.80